Groton New London Airport
KGON : now visible

Airfield :











YOU CAN JOIN US ON...

 
LOGIN :

Register | Disclaimer

   EN    FR    IT 

 









Legend :    VFR   Marginal VFR   IFR   Intensive IFR   Very Intensive IFR
Visi :
Ceiling :
>= 8 km
>= 3000ft
5 to 8 km
1000 to 3000 ft
1500m to 5 km
500 to 1000 ft
800 to 1500m
200 to 500 ft
< 800m
< 200 ft
Symbols :   Thunderstorms  Fog  Heavy snow  Heavy precipitations  Wind > 20 kt






- Airport Elevation : 9 ft
- IATA code : GON


KGON - Groton New London

CURRENT METAR :
  • 121856Z 34004KT 10SM CLR 00/M09 A3068 RMK AO2 SLP390 T00001094

EXPIRED METARs :
  • 121756Z 35007KT 10SM CLR 00/M10 A3068 RMK AO2 SLP390 T00001100 10000 21050 58012
  • 121656Z 34009KT 10SM CLR 00/M10 A3070 RMK AO2 SLP395 T00001100

TAF KGON
Valid from the 12 at 18:00 until the 13 at 18:00 UTC


121744Z 1218/1318 35007KT P6SM BKN250
FM122200 VRB03KT P6SM BKN250
FM130400 15005KT P6SM SCT030 BKN250
FM130700 VRB04KT P6SM BKN035
FM131200 10005KT P6SM SCT020 BKN030
FM131400 10006KT P6SM OVC025
PROB30 1314/1318 5SM -RA BKN010



MET'MAP, your aeronautical weather chart ! - Copyright ORBIFLY December 2007 - Disclaimer

ORBIFLY MET'MAP TEAM :

Programming & Development : Alexandra Zaïnal
Concept & original design : Baudouin d'Aumeries
Assistance for programming : Marc-Olivier Méhu
Technical & hardware support : Manuel Goepfert

Contact : metmap@orbifly.com




SOURCES & CREDITS :

   NOAA       Earth
Advisory